sensor_id;sensor_type;location;lat;lon;timestamp;P1;durP1;ratioP1;P2;durP2;ratioP2
6095;SDS011;25081;42.698;23.298;2023-03-26T00:00:33;2.35;;;1.47;;
6095;SDS011;25081;42.698;23.298;2023-03-26T00:02:43;3.85;;;2.25;;
6095;SDS011;25081;42.698;23.298;2023-03-26T00:04:54;2.47;;;1.40;;
6095;SDS011;25081;42.698;23.298;2023-03-26T00:07:04;2.58;;;1.35;;
6095;SDS011;25081;42.698;23.298;2023-03-26T00:09:15;1.95;;;1.42;;
6095;SDS011;25081;42.698;23.298;2023-03-26T00:11:26;3.65;;;2.05;;
6095;SDS011;25081;42.698;23.298;2023-03-26T00:13:36;1.60;;;1.20;;
6095;SDS011;25081;42.698;23.298;2023-03-26T00:15:46;2.83;;;1.40;;
6095;SDS011;25081;42.698;23.298;2023-03-26T00:17:57;2.60;;;1.50;;
6095;SDS011;25081;42.698;23.298;2023-03-26T00:20:09;2.52;;;1.40;;
6095;SDS011;25081;42.698;23.298;2023-03-26T00:22:20;2.10;;;1.40;;
6095;SDS011;25081;42.698;23.298;2023-03-26T00:24:30;2.60;;;1.40;;
6095;SDS011;25081;42.698;23.298;2023-03-26T00:26:41;2.55;;;1.80;;
6095;SDS011;25081;42.698;23.298;2023-03-26T00:28:51;3.17;;;1.90;;
6095;SDS011;25081;42.698;23.298;2023-03-26T00:31:03;2.83;;;1.92;;
6095;SDS011;25081;42.698;23.298;2023-03-26T00:33:13;2.47;;;2.00;;
6095;SDS011;25081;42.698;23.298;2023-03-26T00:35:37;2.62;;;1.98;;
6095;SDS011;25081;42.698;23.298;2023-03-26T00:37:48;3.45;;;1.65;;
6095;SDS011;25081;42.698;23.298;2023-03-26T00:39:59;1.90;;;1.52;;
6095;SDS011;25081;42.698;23.298;2023-03-26T00:42:10;2.67;;;1.47;;
6095;SDS011;25081;42.698;23.298;2023-03-26T00:44:21;3.08;;;1.60;;
6095;SDS011;25081;42.698;23.298;2023-03-26T00:46:31;2.00;;;1.52;;
6095;SDS011;25081;42.698;23.298;2023-03-26T00:48:42;2.87;;;1.70;;
6095;SDS011;25081;42.698;23.298;2023-03-26T00:50:52;2.60;;;1.70;;
6095;SDS011;25081;42.698;23.298;2023-03-26T00:53:03;2.67;;;1.87;;
6095;SDS011;25081;42.698;23.298;2023-03-26T00:55:13;2.55;;;1.50;;
6095;SDS011;25081;42.698;23.298;2023-03-26T00:57:24;2.55;;;1.87;;
6095;SDS011;25081;42.698;23.298;2023-03-26T00:59:35;2.62;;;1.50;;
6095;SDS011;25081;42.698;23.298;2023-03-26T01:01:46;2.42;;;1.50;;
6095;SDS011;25081;42.698;23.298;2023-03-26T01:03:57;2.65;;;1.55;;
6095;SDS011;25081;42.698;23.298;2023-03-26T01:06:09;3.90;;;1.80;;
6095;SDS011;25081;42.698;23.298;2023-03-26T01:08:24;3.72;;;1.95;;
6095;SDS011;25081;42.698;23.298;2023-03-26T01:10:34;4.22;;;2.10;;
6095;SDS011;25081;42.698;23.298;2023-03-26T01:12:45;2.20;;;1.30;;
6095;SDS011;25081;42.698;23.298;2023-03-26T01:14:57;2.70;;;1.40;;
6095;SDS011;25081;42.698;23.298;2023-03-26T01:17:07;2.92;;;2.20;;
6095;SDS011;25081;42.698;23.298;2023-03-26T01:19:20;3.65;;;1.65;;
6095;SDS011;25081;42.698;23.298;2023-03-26T01:21:28;3.15;;;1.70;;
6095;SDS011;25081;42.698;23.298;2023-03-26T01:23:41;3.00;;;2.00;;
6095;SDS011;25081;42.698;23.298;2023-03-26T01:25:53;2.90;;;1.87;;
6095;SDS011;25081;42.698;23.298;2023-03-26T01:28:03;2.80;;;1.67;;
6095;SDS011;25081;42.698;23.298;2023-03-26T01:30:15;2.60;;;1.65;;
6095;SDS011;25081;42.698;23.298;2023-03-26T01:32:29;2.08;;;1.60;;
6095;SDS011;25081;42.698;23.298;2023-03-26T01:34:47;2.22;;;1.80;;
6095;SDS011;25081;42.698;23.298;2023-03-26T01:37:01;3.08;;;1.98;;
6095;SDS011;25081;42.698;23.298;2023-03-26T01:39:14;2.40;;;1.55;;
6095;SDS011;25081;42.698;23.298;2023-03-26T01:41:25;1.82;;;1.40;;
6095;SDS011;25081;42.698;23.298;2023-03-26T01:43:37;1.80;;;1.40;;
6095;SDS011;25081;42.698;23.298;2023-03-26T01:45:46;2.92;;;1.50;;
6095;SDS011;25081;42.698;23.298;2023-03-26T01:47:57;3.02;;;1.70;;
6095;SDS011;25081;42.698;23.298;2023-03-26T01:50:08;2.62;;;1.50;;
6095;SDS011;25081;42.698;23.298;2023-03-26T01:52:22;3.65;;;1.80;;
6095;SDS011;25081;42.698;23.298;2023-03-26T01:54:30;2.10;;;1.50;;
6095;SDS011;25081;42.698;23.298;2023-03-26T01:56:43;2.25;;;1.62;;
6095;SDS011;25081;42.698;23.298;2023-03-26T01:59:06;1.70;;;1.30;;
6095;SDS011;25081;42.698;23.298;2023-03-26T02:01:19;2.30;;;1.52;;
6095;SDS011;25081;42.698;23.298;2023-03-26T02:03:29;2.40;;;1.55;;
6095;SDS011;25081;42.698;23.298;2023-03-26T02:05:41;2.85;;;1.55;;
6095;SDS011;25081;42.698;23.298;2023-03-26T02:07:51;4.70;;;1.60;;
6095;SDS011;25081;42.698;23.298;2023-03-26T02:10:03;2.10;;;1.60;;
6095;SDS011;25081;42.698;23.298;2023-03-26T02:12:13;2.50;;;1.77;;
6095;SDS011;25081;42.698;23.298;2023-03-26T02:14:23;2.20;;;1.50;;
6095;SDS011;25081;42.698;23.298;2023-03-26T02:16:34;2.92;;;1.50;;
6095;SDS011;25081;42.698;23.298;2023-03-26T02:18:45;4.53;;;1.57;;
6095;SDS011;25081;42.698;23.298;2023-03-26T02:20:55;2.47;;;1.65;;
6095;SDS011;25081;42.698;23.298;2023-03-26T02:23:05;2.27;;;1.80;;
6095;SDS011;25081;42.698;23.298;2023-03-26T02:25:17;3.35;;;1.70;;
6095;SDS011;25081;42.698;23.298;2023-03-26T02:27:26;3.52;;;2.42;;
6095;SDS011;25081;42.698;23.298;2023-03-26T02:29:38;5.40;;;2.30;;
6095;SDS011;25081;42.698;23.298;2023-03-26T02:31:48;2.20;;;1.77;;
6095;SDS011;25081;42.698;23.298;2023-03-26T02:33:59;3.42;;;2.52;;
6095;SDS011;25081;42.698;23.298;2023-03-26T02:36:10;2.35;;;1.82;;
6095;SDS011;25081;42.698;23.298;2023-03-26T02:38:21;7.30;;;1.90;;
6095;SDS011;25081;42.698;23.298;2023-03-26T02:40:32;2.70;;;2.05;;
6095;SDS011;25081;42.698;23.298;2023-03-26T02:42:42;2.50;;;1.80;;
6095;SDS011;25081;42.698;23.298;2023-03-26T02:44:53;2.62;;;2.10;;
6095;SDS011;25081;42.698;23.298;2023-03-26T02:47:03;3.85;;;2.55;;
6095;SDS011;25081;42.698;23.298;2023-03-26T02:49:14;4.12;;;2.50;;
6095;SDS011;25081;42.698;23.298;2023-03-26T02:51:25;2.85;;;2.33;;
6095;SDS011;25081;42.698;23.298;2023-03-26T02:53:35;3.17;;;1.98;;
6095;SDS011;25081;42.698;23.298;2023-03-26T02:55:46;3.75;;;2.42;;
6095;SDS011;25081;42.698;23.298;2023-03-26T02:57:56;2.22;;;1.80;;
6095;SDS011;25081;42.698;23.298;2023-03-26T03:00:08;3.05;;;1.80;;
6095;SDS011;25081;42.698;23.298;2023-03-26T03:02:19;2.40;;;1.70;;
6095;SDS011;25081;42.698;23.298;2023-03-26T03:04:30;3.70;;;2.05;;
6095;SDS011;25081;42.698;23.298;2023-03-26T03:06:41;2.52;;;2.20;;
6095;SDS011;25081;42.698;23.298;2023-03-26T03:08:53;3.50;;;2.30;;
6095;SDS011;25081;42.698;23.298;2023-03-26T03:11:08;2.80;;;2.30;;
6095;SDS011;25081;42.698;23.298;2023-03-26T03:13:17;5.45;;;3.10;;
6095;SDS011;25081;42.698;23.298;2023-03-26T03:15:28;3.72;;;2.98;;
6095;SDS011;25081;42.698;23.298;2023-03-26T03:17:38;3.12;;;2.67;;
6095;SDS011;25081;42.698;23.298;2023-03-26T03:19:49;6.33;;;3.40;;
6095;SDS011;25081;42.698;23.298;2023-03-26T03:21:59;4.53;;;3.33;;
6095;SDS011;25081;42.698;23.298;2023-03-26T03:24:10;4.20;;;3.12;;
6095;SDS011;25081;42.698;23.298;2023-03-26T03:26:21;3.60;;;2.90;;
6095;SDS011;25081;42.698;23.298;2023-03-26T03:28:31;4.67;;;3.12;;
6095;SDS011;25081;42.698;23.298;2023-03-26T03:30:41;3.90;;;3.35;;
6095;SDS011;25081;42.698;23.298;2023-03-26T03:32:52;3.98;;;3.40;;
6095;SDS011;25081;42.698;23.298;2023-03-26T03:35:03;5.40;;;3.83;;
6095;SDS011;25081;42.698;23.298;2023-03-26T03:37:14;5.33;;;3.77;;
6095;SDS011;25081;42.698;23.298;2023-03-26T03:39:24;3.85;;;2.98;;
6095;SDS011;25081;42.698;23.298;2023-03-26T03:41:35;5.28;;;3.60;;
6095;SDS011;25081;42.698;23.298;2023-03-26T03:43:45;7.40;;;3.33;;
6095;SDS011;25081;42.698;23.298;2023-03-26T03:45:56;5.25;;;3.40;;
6095;SDS011;25081;42.698;23.298;2023-03-26T03:48:06;4.75;;;3.58;;
6095;SDS011;25081;42.698;23.298;2023-03-26T03:50:17;4.20;;;3.47;;
6095;SDS011;25081;42.698;23.298;2023-03-26T03:52:28;4.35;;;3.70;;
6095;SDS011;25081;42.698;23.298;2023-03-26T03:54:38;7.53;;;3.75;;
6095;SDS011;25081;42.698;23.298;2023-03-26T03:56:49;4.37;;;3.67;;
6095;SDS011;25081;42.698;23.298;2023-03-26T03:58:59;6.58;;;3.83;;
6095;SDS011;25081;42.698;23.298;2023-03-26T04:01:10;5.03;;;3.70;;
6095;SDS011;25081;42.698;23.298;2023-03-26T04:03:21;3.72;;;3.10;;
6095;SDS011;25081;42.698;23.298;2023-03-26T04:05:31;5.83;;;4.65;;
6095;SDS011;25081;42.698;23.298;2023-03-26T04:07:42;4.30;;;3.50;;
6095;SDS011;25081;42.698;23.298;2023-03-26T04:09:52;4.80;;;3.75;;
6095;SDS011;25081;42.698;23.298;2023-03-26T04:12:03;6.03;;;3.90;;
6095;SDS011;25081;42.698;23.298;2023-03-26T04:14:15;4.00;;;3.45;;
6095;SDS011;25081;42.698;23.298;2023-03-26T04:16:25;4.33;;;3.67;;
6095;SDS011;25081;42.698;23.298;2023-03-26T04:18:36;5.22;;;4.00;;
6095;SDS011;25081;42.698;23.298;2023-03-26T04:20:46;4.30;;;3.58;;
6095;SDS011;25081;42.698;23.298;2023-03-26T04:22:57;5.97;;;4.12;;
6095;SDS011;25081;42.698;23.298;2023-03-26T04:25:08;4.60;;;4.10;;
6095;SDS011;25081;42.698;23.298;2023-03-26T04:27:28;5.03;;;4.20;;
6095;SDS011;25081;42.698;23.298;2023-03-26T04:29:29;10.03;;;4.10;;
6095;SDS011;25081;42.698;23.298;2023-03-26T04:31:40;5.12;;;4.08;;
6095;SDS011;25081;42.698;23.298;2023-03-26T04:33:50;5.95;;;4.33;;
6095;SDS011;25081;42.698;23.298;2023-03-26T04:36:02;6.35;;;4.72;;
6095;SDS011;25081;42.698;23.298;2023-03-26T04:38:13;5.05;;;4.53;;
6095;SDS011;25081;42.698;23.298;2023-03-26T04:40:24;4.87;;;4.28;;
6095;SDS011;25081;42.698;23.298;2023-03-26T04:42:36;6.25;;;4.15;;
6095;SDS011;25081;42.698;23.298;2023-03-26T04:44:47;5.05;;;4.05;;
6095;SDS011;25081;42.698;23.298;2023-03-26T04:46:57;4.95;;;4.03;;
6095;SDS011;25081;42.698;23.298;2023-03-26T04:49:08;5.80;;;4.33;;
6095;SDS011;25081;42.698;23.298;2023-03-26T04:51:18;6.17;;;4.92;;
6095;SDS011;25081;42.698;23.298;2023-03-26T04:53:29;5.17;;;4.20;;
6095;SDS011;25081;42.698;23.298;2023-03-26T04:55:40;4.75;;;4.30;;
6095;SDS011;25081;42.698;23.298;2023-03-26T04:57:50;5.12;;;4.28;;
6095;SDS011;25081;42.698;23.298;2023-03-26T05:00:02;4.92;;;4.42;;
6095;SDS011;25081;42.698;23.298;2023-03-26T05:02:21;5.00;;;4.50;;
6095;SDS011;25081;42.698;23.298;2023-03-26T05:04:31;5.92;;;4.90;;
6095;SDS011;25081;42.698;23.298;2023-03-26T05:06:42;7.53;;;4.55;;
6095;SDS011;25081;42.698;23.298;2023-03-26T05:08:52;6.10;;;5.12;;
6095;SDS011;25081;42.698;23.298;2023-03-26T05:11:03;7.20;;;4.20;;
6095;SDS011;25081;42.698;23.298;2023-03-26T05:13:16;5.70;;;5.17;;
6095;SDS011;25081;42.698;23.298;2023-03-26T05:15:27;6.60;;;5.90;;
6095;SDS011;25081;42.698;23.298;2023-03-26T05:17:37;6.80;;;5.43;;
6095;SDS011;25081;42.698;23.298;2023-03-26T05:19:49;6.75;;;6.05;;
6095;SDS011;25081;42.698;23.298;2023-03-26T05:21:59;5.90;;;5.30;;
6095;SDS011;25081;42.698;23.298;2023-03-26T05:24:10;7.30;;;5.40;;
6095;SDS011;25081;42.698;23.298;2023-03-26T05:26:20;6.83;;;5.47;;
6095;SDS011;25081;42.698;23.298;2023-03-26T05:28:31;6.97;;;6.17;;
6095;SDS011;25081;42.698;23.298;2023-03-26T05:30:41;7.20;;;6.50;;
6095;SDS011;25081;42.698;23.298;2023-03-26T05:32:52;7.63;;;6.07;;
6095;SDS011;25081;42.698;23.298;2023-03-26T05:35:03;6.73;;;6.03;;
6095;SDS011;25081;42.698;23.298;2023-03-26T05:37:14;5.70;;;5.10;;
6095;SDS011;25081;42.698;23.298;2023-03-26T05:39:25;6.37;;;5.73;;
6095;SDS011;25081;42.698;23.298;2023-03-26T05:41:35;6.23;;;5.63;;
6095;SDS011;25081;42.698;23.298;2023-03-26T05:43:46;7.67;;;5.40;;
6095;SDS011;25081;42.698;23.298;2023-03-26T05:45:57;6.40;;;5.80;;
6095;SDS011;25081;42.698;23.298;2023-03-26T05:48:07;8.97;;;6.47;;
6095;SDS011;25081;42.698;23.298;2023-03-26T05:50:18;11.70;;;7.20;;
6095;SDS011;25081;42.698;23.298;2023-03-26T05:52:28;9.03;;;7.23;;
6095;SDS011;25081;42.698;23.298;2023-03-26T05:54:40;9.67;;;6.50;;
6095;SDS011;25081;42.698;23.298;2023-03-26T05:56:50;8.77;;;7.60;;
6095;SDS011;25081;42.698;23.298;2023-03-26T05:59:01;10.67;;;7.40;;
6095;SDS011;25081;42.698;23.298;2023-03-26T06:01:12;7.77;;;7.00;;
6095;SDS011;25081;42.698;23.298;2023-03-26T06:03:24;8.30;;;7.33;;
6095;SDS011;25081;42.698;23.298;2023-03-26T06:05:36;8.93;;;7.50;;
6095;SDS011;25081;42.698;23.298;2023-03-26T06:07:45;8.57;;;7.30;;
6095;SDS011;25081;42.698;23.298;2023-03-26T06:09:57;8.73;;;7.67;;
6095;SDS011;25081;42.698;23.298;2023-03-26T06:12:08;8.27;;;7.47;;
6095;SDS011;25081;42.698;23.298;2023-03-26T06:14:18;9.90;;;7.87;;
6095;SDS011;25081;42.698;23.298;2023-03-26T06:16:28;8.70;;;7.20;;
6095;SDS011;25081;42.698;23.298;2023-03-26T06:18:39;9.03;;;8.20;;
6095;SDS011;25081;42.698;23.298;2023-03-26T06:20:49;11.00;;;7.70;;
6095;SDS011;25081;42.698;23.298;2023-03-26T06:23:00;9.00;;;7.90;;
6095;SDS011;25081;42.698;23.298;2023-03-26T06:25:10;7.90;;;7.10;;
6095;SDS011;25081;42.698;23.298;2023-03-26T06:27:21;10.53;;;8.30;;
6095;SDS011;25081;42.698;23.298;2023-03-26T06:29:31;10.30;;;7.93;;
6095;SDS011;25081;42.698;23.298;2023-03-26T06:31:42;9.20;;;7.63;;
6095;SDS011;25081;42.698;23.298;2023-03-26T06:33:53;10.77;;;8.87;;
6095;SDS011;25081;42.698;23.298;2023-03-26T06:36:04;11.30;;;9.00;;
6095;SDS011;25081;42.698;23.298;2023-03-26T06:38:15;9.27;;;7.90;;
6095;SDS011;25081;42.698;23.298;2023-03-26T06:40:25;9.30;;;8.30;;
6095;SDS011;25081;42.698;23.298;2023-03-26T06:42:36;9.63;;;8.50;;
6095;SDS011;25081;42.698;23.298;2023-03-26T06:44:46;8.30;;;6.80;;
6095;SDS011;25081;42.698;23.298;2023-03-26T06:46:57;8.00;;;7.17;;
6095;SDS011;25081;42.698;23.298;2023-03-26T06:49:07;9.23;;;7.87;;
6095;SDS011;25081;42.698;23.298;2023-03-26T06:51:18;10.27;;;7.40;;
6095;SDS011;25081;42.698;23.298;2023-03-26T06:53:28;7.63;;;6.83;;
6095;SDS011;25081;42.698;23.298;2023-03-26T06:55:38;7.77;;;6.17;;
6095;SDS011;25081;42.698;23.298;2023-03-26T06:57:49;7.30;;;6.20;;
6095;SDS011;25081;42.698;23.298;2023-03-26T06:59:59;8.97;;;8.07;;
6095;SDS011;25081;42.698;23.298;2023-03-26T07:02:10;9.43;;;6.13;;
6095;SDS011;25081;42.698;23.298;2023-03-26T07:04:20;6.67;;;6.07;;
6095;SDS011;25081;42.698;23.298;2023-03-26T07:06:31;6.20;;;5.60;;
6095;SDS011;25081;42.698;23.298;2023-03-26T07:08:42;11.50;;;5.50;;
6095;SDS011;25081;42.698;23.298;2023-03-26T07:10:52;5.53;;;5.00;;
6095;SDS011;25081;42.698;23.298;2023-03-26T07:13:03;5.53;;;4.40;;
6095;SDS011;25081;42.698;23.298;2023-03-26T07:15:13;9.00;;;5.20;;
6095;SDS011;25081;42.698;23.298;2023-03-26T07:17:24;5.80;;;5.20;;
6095;SDS011;25081;42.698;23.298;2023-03-26T07:19:35;5.63;;;5.10;;
6095;SDS011;25081;42.698;23.298;2023-03-26T07:21:46;7.33;;;5.07;;
6095;SDS011;25081;42.698;23.298;2023-03-26T07:23:58;5.00;;;4.50;;
6095;SDS011;25081;42.698;23.298;2023-03-26T07:26:12;5.40;;;4.27;;
6095;SDS011;25081;42.698;23.298;2023-03-26T07:28:24;5.77;;;5.27;;
6095;SDS011;25081;42.698;23.298;2023-03-26T07:30:37;5.57;;;4.97;;
6095;SDS011;25081;42.698;23.298;2023-03-26T07:32:49;6.50;;;5.37;;
6095;SDS011;25081;42.698;23.298;2023-03-26T07:35:00;6.10;;;5.50;;
6095;SDS011;25081;42.698;23.298;2023-03-26T07:37:12;6.10;;;4.90;;
6095;SDS011;25081;42.698;23.298;2023-03-26T07:39:26;5.23;;;4.73;;
6095;SDS011;25081;42.698;23.298;2023-03-26T07:41:39;5.37;;;4.87;;
6095;SDS011;25081;42.698;23.298;2023-03-26T07:43:53;7.40;;;5.07;;
6095;SDS011;25081;42.698;23.298;2023-03-26T07:46:05;5.70;;;4.67;;
6095;SDS011;25081;42.698;23.298;2023-03-26T07:48:18;5.60;;;5.10;;
6095;SDS011;25081;42.698;23.298;2023-03-26T07:50:29;5.53;;;4.63;;
6095;SDS011;25081;42.698;23.298;2023-03-26T07:52:40;4.70;;;4.30;;
6095;SDS011;25081;42.698;23.298;2023-03-26T07:54:52;5.33;;;4.43;;
6095;SDS011;25081;42.698;23.298;2023-03-26T07:57:03;5.10;;;4.20;;
6095;SDS011;25081;42.698;23.298;2023-03-26T07:59:16;6.60;;;3.97;;
6095;SDS011;25081;42.698;23.298;2023-03-26T08:01:34;5.67;;;4.50;;
6095;SDS011;25081;42.698;23.298;2023-03-26T08:03:56;4.50;;;4.10;;
6095;SDS011;25081;42.698;23.298;2023-03-26T08:06:10;7.80;;;4.13;;
6095;SDS011;25081;42.698;23.298;2023-03-26T08:08:23;5.47;;;3.67;;
6095;SDS011;25081;42.698;23.298;2023-03-26T08:10:34;4.53;;;3.63;;
6095;SDS011;25081;42.698;23.298;2023-03-26T08:12:47;3.87;;;3.30;;
6095;SDS011;25081;42.698;23.298;2023-03-26T08:14:58;4.40;;;3.90;;
6095;SDS011;25081;42.698;23.298;2023-03-26T08:17:10;4.40;;;3.40;;
6095;SDS011;25081;42.698;23.298;2023-03-26T08:19:33;5.73;;;4.37;;
6095;SDS011;25081;42.698;23.298;2023-03-26T08:21:48;6.53;;;4.00;;
6095;SDS011;25081;42.698;23.298;2023-03-26T08:24:00;4.43;;;4.03;;
6095;SDS011;25081;42.698;23.298;2023-03-26T08:26:11;5.57;;;5.03;;
6095;SDS011;25081;42.698;23.298;2023-03-26T08:28:27;5.50;;;3.97;;
6095;SDS011;25081;42.698;23.298;2023-03-26T08:30:42;4.60;;;4.07;;
6095;SDS011;25081;42.698;23.298;2023-03-26T08:32:54;4.40;;;3.90;;
6095;SDS011;25081;42.698;23.298;2023-03-26T08:35:06;5.03;;;4.53;;
6095;SDS011;25081;42.698;23.298;2023-03-26T08:37:20;4.50;;;3.73;;
6095;SDS011;25081;42.698;23.298;2023-03-26T08:39:30;5.10;;;4.17;;
6095;SDS011;25081;42.698;23.298;2023-03-26T08:50:51;4.90;;;3.70;;
6095;SDS011;25081;42.698;23.298;2023-03-26T08:53:23;3.97;;;3.47;;
6095;SDS011;25081;42.698;23.298;2023-03-26T08:55:40;4.40;;;3.57;;
6095;SDS011;25081;42.698;23.298;2023-03-26T08:58:06;4.00;;;3.60;;
6095;SDS011;25081;42.698;23.298;2023-03-26T09:00:37;3.53;;;3.10;;
6095;SDS011;25081;42.698;23.298;2023-03-26T09:03:18;4.50;;;3.67;;
6095;SDS011;25081;42.698;23.298;2023-03-26T09:06:04;3.77;;;2.90;;
6095;SDS011;25081;42.698;23.298;2023-03-26T09:11:02;8.53;;;3.47;;
6095;SDS011;25081;42.698;23.298;2023-03-26T09:13:25;4.73;;;3.00;;
6095;SDS011;25081;42.698;23.298;2023-03-26T09:16:17;4.60;;;3.50;;
6095;SDS011;25081;42.698;23.298;2023-03-26T09:21:14;3.73;;;2.93;;
6095;SDS011;25081;42.698;23.298;2023-03-26T09:23:58;6.40;;;2.80;;
6095;SDS011;25081;42.698;23.298;2023-03-26T09:26:42;6.57;;;3.00;;
6095;SDS011;25081;42.698;23.298;2023-03-26T09:31:59;3.43;;;2.40;;
6095;SDS011;25081;42.698;23.298;2023-03-26T09:34:25;6.13;;;2.80;;
6095;SDS011;25081;42.698;23.298;2023-03-26T09:36:53;3.27;;;2.53;;
6095;SDS011;25081;42.698;23.298;2023-03-26T09:39:07;3.50;;;2.80;;
6095;SDS011;25081;42.698;23.298;2023-03-26T09:41:19;3.70;;;2.80;;
6095;SDS011;25081;42.698;23.298;2023-03-26T09:43:54;3.87;;;2.50;;
6095;SDS011;25081;42.698;23.298;2023-03-26T09:46:15;3.63;;;2.40;;
6095;SDS011;25081;42.698;23.298;2023-03-26T09:51:48;4.50;;;2.40;;
6095;SDS011;25081;42.698;23.298;2023-03-26T09:54:30;3.50;;;2.50;;
6095;SDS011;25081;42.698;23.298;2023-03-26T09:56:52;3.03;;;2.40;;
6095;SDS011;25081;42.698;23.298;2023-03-26T09:59:09;3.20;;;2.33;;
6095;SDS011;25081;42.698;23.298;2023-03-26T10:01:28;3.53;;;2.30;;
6095;SDS011;25081;42.698;23.298;2023-03-26T10:03:41;4.80;;;2.30;;
6095;SDS011;25081;42.698;23.298;2023-03-26T10:06:03;3.90;;;2.20;;
6095;SDS011;25081;42.698;23.298;2023-03-26T10:08:25;6.43;;;2.47;;
6095;SDS011;25081;42.698;23.298;2023-03-26T10:10:47;2.90;;;1.83;;
6095;SDS011;25081;42.698;23.298;2023-03-26T10:12:58;3.07;;;2.30;;
6095;SDS011;25081;42.698;23.298;2023-03-26T10:15:12;4.20;;;2.40;;
6095;SDS011;25081;42.698;23.298;2023-03-26T10:17:37;4.13;;;2.10;;
6095;SDS011;25081;42.698;23.298;2023-03-26T10:19:52;2.60;;;1.90;;
6095;SDS011;25081;42.698;23.298;2023-03-26T10:22:06;5.87;;;2.00;;
6095;SDS011;25081;42.698;23.298;2023-03-26T10:24:22;5.97;;;2.40;;
6095;SDS011;25081;42.698;23.298;2023-03-26T10:26:48;2.60;;;2.00;;
6095;SDS011;25081;42.698;23.298;2023-03-26T10:29:06;2.13;;;1.63;;
6095;SDS011;25081;42.698;23.298;2023-03-26T10:34:11;4.07;;;2.20;;
6095;SDS011;25081;42.698;23.298;2023-03-26T10:36:27;4.30;;;2.20;;
6095;SDS011;25081;42.698;23.298;2023-03-26T10:38:44;3.67;;;1.97;;
6095;SDS011;25081;42.698;23.298;2023-03-26T10:41:00;4.63;;;2.00;;
6095;SDS011;25081;42.698;23.298;2023-03-26T10:43:43;3.03;;;1.83;;
6095;SDS011;25081;42.698;23.298;2023-03-26T10:45:53;2.63;;;1.67;;
6095;SDS011;25081;42.698;23.298;2023-03-26T10:50:48;3.63;;;1.80;;
6095;SDS011;25081;42.698;23.298;2023-03-26T10:53:07;2.10;;;1.50;;
6095;SDS011;25081;42.698;23.298;2023-03-26T10:55:18;7.27;;;1.80;;
6095;SDS011;25081;42.698;23.298;2023-03-26T10:57:32;4.07;;;1.80;;
6095;SDS011;25081;42.698;23.298;2023-03-26T10:59:44;3.50;;;1.60;;
6095;SDS011;25081;42.698;23.298;2023-03-26T11:01:57;2.70;;;1.70;;
6095;SDS011;25081;42.698;23.298;2023-03-26T11:04:16;3.80;;;1.70;;
6095;SDS011;25081;42.698;23.298;2023-03-26T11:06:31;2.10;;;1.50;;
6095;SDS011;25081;42.698;23.298;2023-03-26T11:08:43;4.20;;;1.60;;
6095;SDS011;25081;42.698;23.298;2023-03-26T11:10:54;3.63;;;1.60;;
6095;SDS011;25081;42.698;23.298;2023-03-26T11:13:05;2.07;;;1.50;;
6095;SDS011;25081;42.698;23.298;2023-03-26T11:15:16;3.97;;;1.60;;
6095;SDS011;25081;42.698;23.298;2023-03-26T11:17:32;3.90;;;1.70;;
6095;SDS011;25081;42.698;23.298;2023-03-26T11:19:48;4.23;;;1.40;;
6095;SDS011;25081;42.698;23.298;2023-03-26T11:22:01;2.70;;;1.50;;
6095;SDS011;25081;42.698;23.298;2023-03-26T11:24:18;2.33;;;1.67;;
6095;SDS011;25081;42.698;23.298;2023-03-26T11:26:36;3.00;;;1.70;;
6095;SDS011;25081;42.698;23.298;2023-03-26T11:28:59;6.30;;;1.87;;
6095;SDS011;25081;42.698;23.298;2023-03-26T11:31:18;4.93;;;2.23;;
6095;SDS011;25081;42.698;23.298;2023-03-26T11:33:28;2.63;;;1.80;;
6095;SDS011;25081;42.698;23.298;2023-03-26T11:35:38;3.93;;;2.17;;
6095;SDS011;25081;42.698;23.298;2023-03-26T11:37:51;5.70;;;2.13;;
6095;SDS011;25081;42.698;23.298;2023-03-26T11:40:01;1.73;;;1.30;;
6095;SDS011;25081;42.698;23.298;2023-03-26T11:42:13;2.87;;;1.80;;
6095;SDS011;25081;42.698;23.298;2023-03-26T11:44:23;4.33;;;2.10;;
6095;SDS011;25081;42.698;23.298;2023-03-26T11:46:34;3.53;;;1.90;;
6095;SDS011;25081;42.698;23.298;2023-03-26T11:48:44;3.70;;;2.40;;
6095;SDS011;25081;42.698;23.298;2023-03-26T11:50:56;2.83;;;1.40;;
6095;SDS011;25081;42.698;23.298;2023-03-26T11:53:10;3.63;;;1.90;;
6095;SDS011;25081;42.698;23.298;2023-03-26T11:55:20;2.63;;;1.63;;
6095;SDS011;25081;42.698;23.298;2023-03-26T11:57:31;3.03;;;1.80;;
6095;SDS011;25081;42.698;23.298;2023-03-26T11:59:43;2.83;;;1.47;;
6095;SDS011;25081;42.698;23.298;2023-03-26T12:01:54;3.30;;;1.37;;
6095;SDS011;25081;42.698;23.298;2023-03-26T12:04:07;2.77;;;1.67;;
6095;SDS011;25081;42.698;23.298;2023-03-26T12:06:22;1.93;;;1.37;;
6095;SDS011;25081;42.698;23.298;2023-03-26T12:08:33;2.77;;;1.60;;
6095;SDS011;25081;42.698;23.298;2023-03-26T12:10:43;2.73;;;1.50;;
6095;SDS011;25081;42.698;23.298;2023-03-26T12:12:54;5.60;;;1.80;;
6095;SDS011;25081;42.698;23.298;2023-03-26T12:15:05;3.13;;;1.30;;
6095;SDS011;25081;42.698;23.298;2023-03-26T12:17:27;4.07;;;1.50;;
6095;SDS011;25081;42.698;23.298;2023-03-26T12:19:39;2.30;;;1.70;;
6095;SDS011;25081;42.698;23.298;2023-03-26T12:21:49;2.30;;;1.40;;
6095;SDS011;25081;42.698;23.298;2023-03-26T12:23:59;4.83;;;1.40;;
6095;SDS011;25081;42.698;23.298;2023-03-26T12:26:14;2.67;;;1.20;;
6095;SDS011;25081;42.698;23.298;2023-03-26T12:28:27;2.50;;;1.30;;
6095;SDS011;25081;42.698;23.298;2023-03-26T12:30:38;2.40;;;1.30;;
6095;SDS011;25081;42.698;23.298;2023-03-26T12:32:48;3.10;;;1.70;;
6095;SDS011;25081;42.698;23.298;2023-03-26T12:35:03;3.70;;;1.30;;
6095;SDS011;25081;42.698;23.298;2023-03-26T12:37:34;4.60;;;1.30;;
6095;SDS011;25081;42.698;23.298;2023-03-26T12:39:44;2.43;;;1.60;;
6095;SDS011;25081;42.698;23.298;2023-03-26T12:41:57;2.47;;;1.40;;
6095;SDS011;25081;42.698;23.298;2023-03-26T12:44:20;2.73;;;1.27;;
6095;SDS011;25081;42.698;23.298;2023-03-26T12:46:32;4.30;;;1.13;;
6095;SDS011;25081;42.698;23.298;2023-03-26T12:48:41;3.13;;;1.30;;
6095;SDS011;25081;42.698;23.298;2023-03-26T12:51:00;2.37;;;1.27;;
6095;SDS011;25081;42.698;23.298;2023-03-26T12:53:26;3.80;;;1.30;;
6095;SDS011;25081;42.698;23.298;2023-03-26T12:55:39;1.80;;;1.17;;
6095;SDS011;25081;42.698;23.298;2023-03-26T12:57:52;2.10;;;1.27;;
6095;SDS011;25081;42.698;23.298;2023-03-26T13:00:25;2.00;;;1.20;;
6095;SDS011;25081;42.698;23.298;2023-03-26T13:02:55;2.50;;;1.50;;
6095;SDS011;25081;42.698;23.298;2023-03-26T13:05:29;1.90;;;1.40;;
6095;SDS011;25081;42.698;23.298;2023-03-26T13:07:58;1.90;;;1.20;;
6095;SDS011;25081;42.698;23.298;2023-03-26T13:12:55;2.50;;;1.43;;
6095;SDS011;25081;42.698;23.298;2023-03-26T13:15:18;2.00;;;1.40;;
6095;SDS011;25081;42.698;23.298;2023-03-26T13:17:32;2.83;;;1.10;;
6095;SDS011;25081;42.698;23.298;2023-03-26T13:19:44;2.80;;;1.40;;
6095;SDS011;25081;42.698;23.298;2023-03-26T13:21:57;2.13;;;1.30;;
6095;SDS011;25081;42.698;23.298;2023-03-26T13:24:11;2.50;;;1.30;;
6095;SDS011;25081;42.698;23.298;2023-03-26T13:26:25;2.67;;;1.37;;
6095;SDS011;25081;42.698;23.298;2023-03-26T13:28:38;2.47;;;1.10;;
6095;SDS011;25081;42.698;23.298;2023-03-26T13:30:50;2.33;;;1.43;;
6095;SDS011;25081;42.698;23.298;2023-03-26T13:33:10;2.17;;;1.30;;
6095;SDS011;25081;42.698;23.298;2023-03-26T13:35:32;3.10;;;1.50;;
6095;SDS011;25081;42.698;23.298;2023-03-26T13:37:44;5.03;;;1.53;;
6095;SDS011;25081;42.698;23.298;2023-03-26T13:39:56;1.70;;;1.10;;
6095;SDS011;25081;42.698;23.298;2023-03-26T13:42:11;4.67;;;1.40;;
6095;SDS011;25081;42.698;23.298;2023-03-26T13:44:27;2.23;;;1.10;;
6095;SDS011;25081;42.698;23.298;2023-03-26T13:46:38;3.10;;;1.43;;
6095;SDS011;25081;42.698;23.298;2023-03-26T13:48:49;2.67;;;1.50;;
6095;SDS011;25081;42.698;23.298;2023-03-26T13:51:02;2.27;;;1.33;;
6095;SDS011;25081;42.698;23.298;2023-03-26T13:53:14;2.50;;;1.50;;